createdAt,value
2022-10-24T00:00:01.214Z,16.92
2022-10-24T00:05:00.005Z,16.83
2022-10-24T00:09:58.768Z,16.78
2022-10-24T00:14:57.527Z,16.71
2022-10-24T00:19:59.078Z,16.62
2022-10-24T00:24:57.957Z,16.60
2022-10-24T00:29:56.963Z,16.55
2022-10-24T00:34:57.318Z,16.45
2022-10-24T00:39:56.476Z,16.33
2022-10-24T00:44:55.478Z,16.19
2022-10-24T00:50:00.981Z,16.02
2022-10-24T00:55:02.893Z,15.91
2022-10-24T01:00:06.953Z,15.91
2022-10-24T01:05:09.263Z,15.92
2022-10-24T01:10:20.374Z,15.87
2022-10-24T01:15:24.633Z,15.85
2022-10-24T01:20:46.247Z,15.77
2022-10-24T01:26:00.397Z,15.72
2022-10-24T01:31:08.781Z,15.71
2022-10-24T01:36:11.428Z,15.69
2022-10-24T01:41:14.666Z,15.51
2022-10-24T01:46:19.816Z,15.41
2022-10-24T01:51:22.531Z,15.42
2022-10-24T01:56:21.396Z,15.32
2022-10-24T02:01:25.838Z,15.27
2022-10-24T02:06:31.711Z,15.24
2022-10-24T02:11:31.465Z,15.22
2022-10-24T02:16:32.315Z,15.23
2022-10-24T02:21:37.947Z,15.27
2022-10-24T02:26:44.149Z,15.28
2022-10-24T02:31:49.664Z,15.27
2022-10-24T02:36:51.337Z,15.27
2022-10-24T02:41:52.528Z,15.23
2022-10-24T02:46:55.605Z,15.10
2022-10-24T02:51:55.111Z,15.03
2022-10-24T02:56:57.932Z,15.02
2022-10-24T03:01:58.374Z,15.01
2022-10-24T03:06:57.270Z,15.01
2022-10-24T03:11:56.118Z,14.96
2022-10-24T03:16:55.028Z,14.75
2022-10-24T03:21:55.327Z,14.71
2022-10-24T03:26:54.355Z,14.69
2022-10-24T03:31:53.345Z,14.66
2022-10-24T03:36:52.291Z,14.62
2022-10-24T03:41:53.271Z,14.58
2022-10-24T03:46:52.358Z,14.47
2022-10-24T03:51:51.281Z,14.42
2022-10-24T03:56:50.401Z,14.41
2022-10-24T04:01:50.978Z,14.36
2022-10-24T04:06:49.888Z,14.32
2022-10-24T04:11:49.260Z,14.29
2022-10-24T04:16:48.269Z,14.28
2022-10-24T04:21:49.120Z,14.23
2022-10-24T04:26:48.035Z,14.18
2022-10-24T04:31:47.045Z,14.15
2022-10-24T04:36:48.425Z,14.17
2022-10-24T04:41:47.566Z,14.18
2022-10-24T04:46:50.556Z,14.16
2022-10-24T04:51:51.606Z,14.15
2022-10-24T04:56:50.710Z,14.09
2022-10-24T05:01:49.664Z,14.03
2022-10-24T05:06:48.529Z,14.00
2022-10-24T05:11:48.575Z,13.94
2022-10-24T05:16:48.536Z,13.93
2022-10-24T05:21:48.016Z,13.98
2022-10-24T05:26:49.833Z,14.03
2022-10-24T05:31:48.712Z,14.07
2022-10-24T05:36:47.921Z,14.13
2022-10-24T05:41:48.296Z,14.16
2022-10-24T05:46:48.553Z,14.12
2022-10-24T05:51:47.273Z,14.14
2022-10-24T05:56:46.467Z,14.23
2022-10-24T06:01:46.776Z,14.31
2022-10-24T06:06:46.799Z,14.40
2022-10-24T06:11:45.674Z,14.48
2022-10-24T06:16:44.522Z,14.58
2022-10-24T06:21:44.682Z,14.69
2022-10-24T06:26:43.619Z,14.80
2022-10-24T06:31:42.417Z,14.89
2022-10-24T06:41:46.438Z,14.99
2022-10-24T06:46:46.490Z,15.08
2022-10-24T06:51:45.576Z,15.12
2022-10-24T06:56:45.822Z,15.21
2022-10-24T07:01:45.281Z,15.24
2022-10-24T07:06:44.338Z,15.37
2022-10-24T07:11:43.120Z,15.53
2022-10-24T07:16:43.351Z,15.60
2022-10-24T07:21:42.072Z,15.73
2022-10-24T07:26:40.921Z,15.82
2022-10-24T07:31:39.711Z,15.90
2022-10-24T07:36:41.575Z,15.98
2022-10-24T07:41:43.235Z,16.08
2022-10-24T07:46:43.155Z,16.14
2022-10-24T07:51:46.471Z,16.34
2022-10-24T07:56:45.327Z,16.52
2022-10-24T08:01:44.263Z,16.67
2022-10-24T08:06:44.873Z,16.73
2022-10-24T08:11:45.102Z,16.96
2022-10-24T08:16:43.874Z,17.08
2022-10-24T08:21:42.583Z,17.06
2022-10-24T08:26:41.487Z,17.16
2022-10-24T08:31:42.186Z,17.54
2022-10-24T08:36:41.133Z,18.17
2022-10-24T08:41:43.782Z,18.75
2022-10-24T08:46:50.500Z,19.62
2022-10-24T08:51:54.576Z,20.05
2022-10-24T08:56:55.837Z,20.78
2022-10-24T09:02:03.414Z,21.68
2022-10-24T09:07:04.246Z,22.90
2022-10-24T09:12:05.873Z,23.22
2022-10-24T09:17:16.002Z,23.95
2022-10-24T09:22:17.998Z,24.32
2022-10-24T09:27:23.598Z,25.30
2022-10-24T09:32:27.369Z,25.68
2022-10-24T09:37:44.306Z,25.62
2022-10-24T09:42:52.014Z,26.23
2022-10-24T09:47:58.044Z,26.80
2022-10-24T09:52:59.436Z,27.02
2022-10-24T09:58:00.349Z,27.60
2022-10-24T10:03:03.521Z,27.70
2022-10-24T10:08:12.924Z,28.39
2022-10-24T10:13:24.100Z,29.06
2022-10-24T10:18:26.324Z,28.96
2022-10-24T10:23:27.147Z,28.90
2022-10-24T10:28:26.050Z,29.32
2022-10-24T10:33:32.610Z,29.64
2022-10-24T10:38:44.795Z,30.14
2022-10-24T10:43:55.143Z,30.08
2022-10-24T10:49:14.183Z,30.14
2022-10-24T10:54:33.744Z,29.76
2022-10-24T10:59:47.316Z,30.63
2022-10-24T11:04:58.298Z,30.60
2022-10-24T11:10:01.134Z,30.99
2022-10-24T11:15:04.984Z,31.69
2022-10-24T11:20:11.939Z,31.25
2022-10-24T11:25:22.168Z,30.94
2022-10-24T11:30:30.043Z,32.08
2022-10-24T11:35:33.317Z,32.49
2022-10-24T11:40:43.379Z,32.16
2022-10-24T11:45:55.281Z,32.79
2022-10-24T11:51:18.607Z,33.49
2022-10-24T11:56:27.430Z,33.48
2022-10-24T12:01:53.065Z,33.64
2022-10-24T12:07:23.514Z,33.44
2022-10-24T12:12:42.867Z,33.43
2022-10-24T12:18:05.940Z,33.13
2022-10-24T12:23:08.715Z,33.20
2022-10-24T12:28:14.407Z,33.58
2022-10-24T12:33:25.661Z,33.27
2022-10-24T12:39:08.048Z,34.13
2022-10-24T12:44:51.970Z,34.39
2022-10-24T12:49:52.034Z,34.60
2022-10-24T12:54:56.673Z,34.70
2022-10-24T12:59:59.751Z,34.80
2022-10-24T13:05:12.193Z,34.79
2022-10-24T13:10:27.003Z,33.76
2022-10-24T13:15:59.576Z,33.90
2022-10-24T13:21:46.856Z,33.91
2022-10-24T13:26:53.712Z,34.07
2022-10-24T13:31:55.537Z,33.89
2022-10-24T13:37:09.713Z,34.01
2022-10-24T13:42:16.366Z,33.70
2022-10-24T13:47:31.286Z,33.79
2022-10-24T13:52:37.806Z,33.16
2022-10-24T13:57:55.560Z,33.22
2022-10-24T14:03:04.452Z,33.08
2022-10-24T14:08:12.322Z,32.44
2022-10-24T14:13:19.197Z,32.23
2022-10-24T14:18:24.404Z,32.39
2022-10-24T14:23:34.339Z,32.23
2022-10-24T14:28:52.044Z,31.99
2022-10-24T14:34:00.277Z,31.89
2022-10-24T14:39:04.359Z,31.36
2022-10-24T14:44:19.294Z,31.10
2022-10-24T14:49:29.871Z,30.97
2022-10-24T14:54:36.068Z,30.79
2022-10-24T15:00:25.080Z,30.60
2022-10-24T15:05:35.027Z,30.22
2022-10-24T15:10:50.356Z,29.87
2022-10-24T15:15:57.184Z,29.41
2022-10-24T15:21:07.994Z,28.73
2022-10-24T15:26:13.638Z,28.16
2022-10-24T15:31:20.220Z,27.50
2022-10-24T15:36:24.105Z,27.12
2022-10-24T15:41:23.361Z,26.80
2022-10-24T15:46:24.745Z,26.41
2022-10-24T15:51:26.725Z,25.99
2022-10-24T15:56:26.417Z,25.59
2022-10-24T16:01:29.669Z,25.15
2022-10-24T16:06:30.634Z,24.70
2022-10-24T16:11:31.186Z,24.36
2022-10-24T16:16:30.526Z,24.24
2022-10-24T16:21:31.215Z,24.05
2022-10-24T16:26:31.360Z,23.92
2022-10-24T16:31:31.152Z,23.81
2022-10-24T16:36:35.713Z,23.69
2022-10-24T16:41:34.973Z,23.54
2022-10-24T16:46:43.692Z,23.49
2022-10-24T16:51:52.250Z,23.39
2022-10-24T16:57:17.758Z,23.27
2022-10-24T17:02:19.086Z,23.09
2022-10-24T17:07:19.942Z,22.92
2022-10-24T17:12:22.388Z,22.75
2022-10-24T17:17:27.767Z,22.61
2022-10-24T17:27:31.131Z,22.43
2022-10-24T17:32:33.152Z,22.33
2022-10-24T17:37:45.442Z,22.23
2022-10-24T17:42:49.738Z,22.18
2022-10-24T17:47:49.630Z,22.15
2022-10-24T17:52:52.543Z,22.06
2022-10-24T17:57:54.721Z,21.97
2022-10-24T18:02:56.886Z,21.88
2022-10-24T18:08:01.968Z,21.81
2022-10-24T18:13:02.355Z,21.69
2022-10-24T18:18:02.259Z,21.56
2022-10-24T18:23:03.832Z,21.42
2022-10-24T18:28:05.423Z,21.28
2022-10-24T18:33:04.603Z,21.07
2022-10-24T18:38:05.284Z,21.03
2022-10-24T18:43:06.249Z,21.00
2022-10-24T18:48:06.154Z,20.98
2022-10-24T18:53:10.283Z,20.96
2022-10-24T18:58:18.083Z,20.93
2022-10-24T19:03:25.145Z,20.88
2022-10-24T19:08:27.990Z,20.83
2022-10-24T19:13:28.646Z,20.77
2022-10-24T19:18:34.652Z,20.71
2022-10-24T19:23:36.231Z,20.61
2022-10-24T19:28:35.608Z,20.52
2022-10-24T19:33:35.165Z,20.45
2022-10-24T19:38:39.823Z,20.39
2022-10-24T19:43:39.596Z,20.32
2022-10-24T19:48:38.450Z,20.29
2022-10-24T19:53:40.963Z,20.24
2022-10-24T19:58:41.173Z,20.19
2022-10-24T20:03:40.651Z,20.15
2022-10-24T20:08:41.314Z,20.12
2022-10-24T20:13:40.632Z,20.06
2022-10-24T20:19:13.836Z,20.01
2022-10-24T20:24:40.405Z,19.93
2022-10-24T20:30:13.672Z,19.86
2022-10-24T20:35:44.205Z,19.77
2022-10-24T20:46:49.029Z,19.63
2022-10-24T20:52:07.857Z,19.57
2022-10-24T20:57:42.989Z,19.53
2022-10-24T21:02:55.266Z,19.50
2022-10-24T21:08:15.106Z,19.47
2022-10-24T21:13:42.154Z,19.43
2022-10-24T21:19:18.986Z,19.40
2022-10-24T21:30:27.474Z,19.29
2022-10-24T21:35:41.637Z,19.23
2022-10-24T21:47:08.064Z,19.10
2022-10-24T21:57:53.874Z,19.02
2022-10-24T22:02:54.865Z,18.99
2022-10-24T22:08:14.163Z,18.92
2022-10-24T22:13:35.388Z,18.85
2022-10-24T22:18:36.298Z,18.81
2022-10-24T22:23:35.980Z,18.77
2022-10-24T22:28:36.651Z,18.76
2022-10-24T22:33:42.134Z,18.70
2022-10-24T22:38:41.451Z,18.64
2022-10-24T22:43:40.802Z,18.58
2022-10-24T22:48:43.273Z,18.45
2022-10-24T22:53:42.692Z,18.34
2022-10-24T22:58:43.632Z,18.26
2022-10-24T23:04:00.197Z,18.17
2022-10-24T23:08:59.071Z,18.19
2022-10-24T23:13:58.387Z,18.20
2022-10-24T23:18:59.242Z,18.20
2022-10-24T23:23:58.596Z,18.19
2022-10-24T23:29:05.075Z,18.15
2022-10-24T23:34:05.911Z,18.11
2022-10-24T23:39:05.325Z,18.09
2022-10-24T23:44:06.483Z,18.05
2022-10-24T23:49:17.676Z,18.01
2022-10-24T23:54:20.905Z,17.93
2022-10-24T23:59:19.729Z,17.82
